Etusivu
METAR-TAF:

METAR-TAF

Lentoasemat :

Christchurch, Uusi-Seelanti

Leveyspiiri: 43-29S, Pituuspiiri: 172-33E, korkeus merenpinnasta: 38 m

Tämänhetkinen sää

Tämä raportti tehtiin 48 minuuttia sitten, kello 18.00 UTC
Tuuli 4 kn pohjoisesta/koillisesta
Lämpötila 1°C
Kosteus 100%
Ilmanpaine 999 hPa
Näkyvyys: 8000 m

METAR: NZCH 231800Z AUTO 03004KT 8000 NCD 01/01 Q0999 BECMG 9999

Aika: 06:48 (18:48 UTC)

Sääennuste

Tämä raportti tehtiin 1 tunti ja 46 minuuttia sitten, kello 17.02 UTC
Ennuste voimassa 23. päivästä klo 18 UTC - 24. päivään klo 18 UTC
Tuuli 2 kn eri suunnista
Näkyvyys 10 km tai enemmän
Muutamia pilviä 2000 ft:n korkeudessa
Tulossa
23. päivästä klo 21 UTC - 23. päivään klo 23 UTC
Tuuli 10 kn idästä/koillisesta
Tulossa
24. päivästä klo 10 UTC - 24. päivään klo 12 UTC
Tuuli 10 kn lounaasta

TAF: NZCH 231702Z 2318/2418 VRB02KT 9999 FEW020 BECMG 2321/2323 06010KT BECMG 2410/2412 22010KT

Säähavainnot ja -ennusteet yli 4000 lentoasemalta (METAR- ja TAF-raportit).

Käytössä olevat sääasemat on merkitty karttaan keltaisilla ja punaisilla pisteillä.

Aseta hiiri pisteen päälle nähdäksesi sääaseman nimen.

Klikkaa sitten nähdäksesi säähavainnot ja -ennusteet.

Kartan vaihtaminen: klikkaa mustalla rastilla varustettuja vihreitä pisteitä, niin voit zoomata sisään; viivalla varustettua vihreää pistettä, niin voit zoomata ulos tai vihreitä nuolia, niin pääset viereisille kartoille.


METAR-TAF: